createdAt,value
2022-11-29T00:00:52.356Z,20.03
2022-11-29T00:03:19.819Z,23.03
2022-11-29T00:05:47.222Z,20.13
2022-11-29T00:08:14.571Z,22.63
2022-11-29T00:10:43.219Z,23.33
2022-11-29T00:13:09.694Z,22.60
2022-11-29T00:15:37.631Z,23.67
2022-11-29T00:18:05.574Z,22.33
2022-11-29T00:20:33.052Z,20.97
2022-11-29T00:23:00.655Z,18.93
2022-11-29T00:25:28.166Z,21.77
2022-11-29T00:27:56.958Z,19.20
2022-11-29T00:30:24.542Z,18.40
2022-11-29T00:32:51.980Z,21.40
2022-11-29T00:35:19.525Z,19.30
2022-11-29T00:37:46.975Z,19.80
2022-11-29T00:40:14.421Z,26.30
2022-11-29T00:42:41.858Z,20.17
2022-11-29T00:45:11.580Z,21.17
2022-11-29T00:47:39.037Z,20.43
2022-11-29T00:50:07.449Z,23.50
2022-11-29T00:52:35.099Z,23.20
2022-11-29T00:55:02.602Z,23.43
2022-11-29T00:57:29.977Z,20.23
2022-11-29T00:59:57.497Z,20.30
2022-11-29T01:02:26.329Z,22.83
2022-11-29T01:04:53.801Z,21.23
2022-11-29T01:07:21.251Z,21.20
2022-11-29T01:09:48.770Z,22.00
2022-11-29T01:12:16.166Z,22.67
2022-11-29T01:14:44.338Z,23.17
2022-11-29T01:17:11.985Z,20.80
2022-11-29T01:19:41.712Z,21.00
2022-11-29T01:22:13.538Z,18.10
2022-11-29T01:24:41.405Z,17.80
2022-11-29T01:27:09.984Z,17.77
2022-11-29T01:29:37.405Z,21.00
2022-11-29T01:32:05.010Z,21.47
2022-11-29T01:34:32.460Z,21.93
2022-11-29T01:37:01.235Z,21.70
2022-11-29T01:39:28.658Z,20.10
2022-11-29T01:41:56.067Z,21.77
2022-11-29T01:44:42.669Z,20.83
2022-11-29T01:47:11.220Z,21.20
2022-11-29T01:49:39.995Z,19.70
2022-11-29T01:52:10.982Z,20.70
2022-11-29T01:54:39.809Z,19.43
2022-11-29T01:57:08.342Z,19.80
2022-11-29T01:59:37.321Z,19.00
2022-11-29T02:02:06.991Z,18.37
2022-11-29T02:04:34.884Z,21.43
2022-11-29T02:07:02.382Z,20.73
2022-11-29T02:09:31.241Z,20.70
2022-11-29T02:12:03.229Z,21.87
2022-11-29T02:14:39.513Z,21.53
2022-11-29T02:17:11.269Z,22.40
2022-11-29T02:19:54.399Z,19.73
2022-11-29T02:22:25.505Z,17.93
2022-11-29T02:25:10.069Z,22.73
2022-11-29T02:27:58.203Z,20.23
2022-11-29T02:30:37.039Z,18.87
2022-11-29T02:33:22.542Z,17.00
2022-11-29T02:36:13.468Z,17.33
2022-11-29T02:38:48.915Z,17.53
2022-11-29T02:41:21.649Z,25.33
2022-11-29T02:44:18.452Z,23.00
2022-11-29T02:46:52.584Z,17.20
2022-11-29T02:49:25.430Z,24.50
2022-11-29T02:51:57.841Z,20.73
2022-11-29T02:54:27.600Z,27.20
2022-11-29T02:56:56.655Z,22.67
2022-11-29T02:59:30.594Z,19.53
2022-11-29T03:02:03.036Z,16.80
2022-11-29T03:04:33.053Z,20.43
2022-11-29T03:07:05.387Z,22.90
2022-11-29T03:09:36.311Z,19.10
2022-11-29T03:12:05.029Z,19.17
2022-11-29T03:14:39.155Z,18.53
2022-11-29T03:17:16.887Z,22.73
2022-11-29T03:20:02.059Z,27.53
2022-11-29T03:22:39.550Z,19.97
2022-11-29T03:25:09.215Z,26.87
2022-11-29T03:27:39.316Z,19.77
2022-11-29T03:30:09.464Z,17.20
2022-11-29T03:32:41.160Z,18.83
2022-11-29T03:35:12.576Z,23.00
2022-11-29T03:37:46.070Z,24.97
2022-11-29T03:40:15.414Z,22.40
2022-11-29T03:42:46.854Z,21.70
2022-11-29T03:45:18.606Z,17.00
2022-11-29T03:47:49.899Z,18.40
2022-11-29T03:50:19.462Z,19.80
2022-11-29T03:52:50.758Z,19.50
2022-11-29T03:55:24.069Z,22.90
2022-11-29T03:57:57.736Z,21.67
2022-11-29T04:00:25.508Z,22.20
2022-11-29T04:03:15.891Z,18.87
2022-11-29T04:05:54.228Z,19.40
2022-11-29T04:08:36.552Z,21.23
2022-11-29T04:11:21.984Z,19.43
2022-11-29T04:14:09.024Z,21.33
2022-11-29T04:16:56.706Z,19.93
2022-11-29T04:19:39.016Z,21.93
2022-11-29T04:22:21.662Z,25.63
2022-11-29T04:25:00.466Z,23.83
2022-11-29T04:27:40.343Z,18.23
2022-11-29T04:30:10.859Z,29.80
2022-11-29T04:33:08.731Z,22.70
2022-11-29T04:35:56.542Z,19.70
2022-11-29T04:38:32.964Z,23.80
2022-11-29T04:41:06.657Z,22.83
2022-11-29T04:43:55.501Z,19.70
2022-11-29T04:46:46.972Z,22.00
2022-11-29T04:49:20.086Z,19.83
2022-11-29T04:51:57.933Z,20.30
2022-11-29T04:54:29.848Z,22.30
2022-11-29T04:57:02.751Z,22.77
2022-11-29T04:59:37.788Z,20.13
2022-11-29T05:02:08.170Z,22.93
2022-11-29T05:04:39.880Z,20.60
2022-11-29T05:07:09.209Z,21.87
2022-11-29T05:09:41.683Z,21.73
2022-11-29T05:12:11.807Z,23.60
2022-11-29T05:15:02.780Z,22.83
2022-11-29T05:17:39.221Z,28.03
2022-11-29T05:20:16.045Z,30.53
2022-11-29T05:22:49.174Z,25.70
2022-11-29T05:25:26.960Z,32.37
2022-11-29T05:27:58.157Z,38.50
2022-11-29T05:30:31.973Z,35.03
2022-11-29T05:33:06.712Z,37.53
2022-11-29T05:35:40.771Z,40.10
2022-11-29T05:38:13.474Z,40.70
2022-11-29T05:40:45.172Z,40.40
2022-11-29T05:43:23.622Z,46.10
2022-11-29T05:45:56.271Z,44.93
2022-11-29T05:48:27.308Z,54.57
2022-11-29T05:51:04.200Z,48.27
2022-11-29T05:53:35.117Z,63.43
2022-11-29T05:56:05.285Z,57.13
2022-11-29T05:58:39.261Z,67.80
2022-11-29T06:01:13.204Z,63.20
2022-11-29T06:03:44.675Z,49.80
2022-11-29T06:06:15.171Z,52.80
2022-11-29T06:08:46.771Z,51.53
2022-11-29T06:11:16.582Z,56.23
2022-11-29T06:13:51.732Z,57.37
2022-11-29T06:16:34.167Z,57.67
2022-11-29T06:19:20.763Z,55.80
2022-11-29T06:21:55.012Z,61.93
2022-11-29T06:24:37.854Z,57.60
2022-11-29T06:27:17.260Z,57.17
2022-11-29T06:29:48.078Z,55.10
2022-11-29T06:32:21.666Z,50.67
2022-11-29T06:34:55.528Z,50.23
2022-11-29T06:37:24.891Z,54.53
2022-11-29T06:39:52.658Z,59.60
2022-11-29T06:42:20.033Z,59.87
2022-11-29T06:44:48.024Z,50.87
2022-11-29T06:47:20.112Z,55.97
2022-11-29T06:49:49.165Z,56.20
2022-11-29T06:52:23.864Z,61.20
2022-11-29T06:55:01.218Z,57.97
2022-11-29T06:57:33.164Z,58.43
2022-11-29T07:00:04.981Z,60.90
2022-11-29T07:02:40.646Z,60.40
2022-11-29T07:05:14.908Z,78.07
2022-11-29T07:07:44.126Z,81.03
2022-11-29T07:10:15.333Z,68.30
2022-11-29T07:12:43.062Z,77.53
2022-11-29T07:15:13.521Z,78.70
2022-11-29T07:17:46.238Z,94.00
2022-11-29T07:20:17.933Z,96.80
2022-11-29T07:22:56.256Z,97.73
2022-11-29T07:25:29.620Z,104.53
2022-11-29T07:28:03.337Z,104.73
2022-11-29T07:30:35.645Z,119.97
2022-11-29T07:33:06.841Z,111.83
2022-11-29T07:35:38.298Z,125.70
2022-11-29T07:38:11.013Z,132.30
2022-11-29T07:40:43.801Z,134.50
2022-11-29T07:43:18.524Z,116.17
2022-11-29T07:45:46.453Z,130.27
2022-11-29T07:48:14.170Z,126.33
2022-11-29T07:50:41.744Z,136.90
2022-11-29T07:53:14.303Z,143.60
2022-11-29T07:55:41.703Z,151.33
2022-11-29T07:58:11.347Z,157.20
2022-11-29T08:00:38.833Z,133.50
2022-11-29T08:03:06.513Z,157.90
2022-11-29T08:05:34.040Z,154.97
2022-11-29T08:08:01.767Z,164.23
2022-11-29T08:10:30.685Z,164.37
2022-11-29T08:12:58.328Z,181.03
2022-11-29T08:15:26.268Z,169.93
2022-11-29T08:17:54.042Z,153.40
2022-11-29T08:20:21.525Z,148.60
2022-11-29T08:22:54.373Z,166.43
2022-11-29T08:25:21.843Z,146.73
2022-11-29T08:27:51.632Z,155.10
2022-11-29T08:30:22.170Z,145.40
2022-11-29T08:32:51.763Z,168.83
2022-11-29T08:35:19.778Z,139.80
2022-11-29T08:37:47.379Z,142.43
2022-11-29T08:40:15.059Z,149.17
2022-11-29T08:42:42.498Z,136.73
2022-11-29T08:45:11.745Z,145.27
2022-11-29T08:47:41.066Z,132.07
2022-11-29T08:50:14.208Z,125.97
2022-11-29T08:53:00.208Z,150.30
2022-11-29T08:55:28.822Z,137.07
2022-11-29T08:58:01.276Z,125.47
2022-11-29T09:00:30.244Z,142.33
2022-11-29T09:03:18.035Z,117.60
2022-11-29T09:05:45.563Z,122.13
2022-11-29T09:08:13.047Z,116.97
2022-11-29T09:10:40.969Z,121.63
2022-11-29T09:13:08.451Z,117.27
2022-11-29T09:15:37.276Z,121.00
2022-11-29T09:18:05.578Z,131.17
2022-11-29T09:20:33.359Z,125.80
2022-11-29T09:23:01.025Z,121.57
2022-11-29T09:25:29.205Z,113.93
2022-11-29T09:27:58.553Z,113.20
2022-11-29T09:30:26.433Z,105.90
2022-11-29T09:32:55.284Z,115.50
2022-11-29T09:35:22.636Z,109.17
2022-11-29T09:37:49.989Z,104.07
2022-11-29T09:40:19.722Z,107.63
2022-11-29T09:42:51.870Z,105.10
2022-11-29T09:45:21.245Z,93.27
2022-11-29T09:48:03.567Z,103.03
2022-11-29T09:50:34.796Z,101.60
2022-11-29T09:53:07.890Z,99.40
2022-11-29T09:55:40.036Z,82.70
2022-11-29T09:58:08.772Z,89.60
2022-11-29T10:00:39.241Z,82.40
2022-11-29T10:03:13.816Z,102.90
2022-11-29T10:05:46.833Z,93.80
2022-11-29T10:08:16.472Z,91.43
2022-11-29T10:10:45.707Z,83.57
2022-11-29T10:13:17.023Z,95.73
2022-11-29T10:15:45.327Z,75.40
2022-11-29T10:18:17.722Z,80.83
2022-11-29T10:20:49.183Z,95.03
2022-11-29T10:23:19.289Z,81.70
2022-11-29T10:25:48.067Z,76.73
2022-11-29T10:28:16.911Z,73.73
2022-11-29T10:30:44.389Z,79.50
2022-11-29T10:33:16.973Z,75.00
2022-11-29T10:35:46.232Z,69.13
2022-11-29T10:38:30.359Z,75.37
2022-11-29T10:41:03.342Z,68.90
2022-11-29T10:43:30.960Z,66.33
2022-11-29T10:45:58.895Z,74.37
2022-11-29T10:48:28.611Z,74.53
2022-11-29T10:50:57.447Z,76.37
2022-11-29T10:53:25.624Z,67.77
2022-11-29T10:55:57.043Z,76.73
2022-11-29T10:58:28.318Z,73.17
2022-11-29T11:00:57.309Z,78.47
2022-11-29T11:03:36.440Z,74.33
2022-11-29T11:06:07.599Z,77.27
2022-11-29T11:08:35.784Z,81.60
2022-11-29T11:11:04.443Z,64.90
2022-11-29T11:13:32.437Z,66.83
2022-11-29T11:16:08.637Z,87.83
2022-11-29T11:18:36.737Z,65.27
2022-11-29T11:21:04.622Z,73.87
2022-11-29T11:23:36.495Z,78.43
2022-11-29T11:26:08.385Z,76.90
2022-11-29T11:28:38.014Z,70.67
2022-11-29T11:31:08.288Z,75.83
2022-11-29T11:33:37.682Z,83.23
2022-11-29T11:36:09.808Z,83.13
2022-11-29T11:38:39.677Z,78.47
2022-11-29T11:41:13.575Z,69.93
2022-11-29T11:43:41.042Z,75.43
2022-11-29T11:46:09.350Z,74.93
2022-11-29T11:48:40.446Z,66.23
2022-11-29T11:51:20.022Z,73.57
2022-11-29T11:53:50.740Z,77.23
2022-11-29T11:56:18.265Z,61.47
2022-11-29T11:58:48.601Z,71.70
2022-11-29T12:01:17.474Z,73.27
2022-11-29T12:03:48.677Z,87.23
2022-11-29T12:06:46.206Z,71.97
2022-11-29T12:09:19.631Z,68.93
2022-11-29T12:11:50.505Z,78.53
2022-11-29T12:14:22.866Z,73.83
2022-11-29T12:16:50.988Z,75.67
2022-11-29T12:19:20.336Z,93.30
2022-11-29T12:21:52.469Z,78.67
2022-11-29T12:24:22.681Z,74.67
2022-11-29T12:26:59.051Z,67.33
2022-11-29T12:29:28.763Z,69.20
2022-11-29T12:32:03.114Z,63.30
2022-11-29T12:34:42.792Z,68.77
2022-11-29T12:37:13.275Z,70.20
2022-11-29T12:39:49.491Z,65.90
2022-11-29T12:42:22.474Z,67.80
2022-11-29T12:44:54.977Z,67.30
2022-11-29T12:47:35.578Z,70.53
2022-11-29T12:50:08.309Z,66.87
2022-11-29T12:52:41.056Z,69.33
2022-11-29T12:55:17.198Z,69.13
2022-11-29T12:57:48.558Z,69.70
2022-11-29T13:00:16.842Z,78.23
2022-11-29T13:02:50.307Z,55.20
2022-11-29T13:05:21.111Z,64.50
2022-11-29T13:07:57.414Z,65.63
2022-11-29T13:10:36.489Z,63.23
2022-11-29T13:13:06.141Z,67.27
2022-11-29T13:15:38.071Z,66.00
2022-11-29T13:18:08.428Z,62.73
2022-11-29T13:20:39.686Z,60.87
2022-11-29T13:23:14.109Z,67.77
2022-11-29T13:25:43.889Z,67.23
2022-11-29T13:28:15.424Z,84.47
2022-11-29T13:30:43.133Z,67.13
2022-11-29T13:33:16.127Z,65.50
2022-11-29T13:35:48.141Z,63.30
2022-11-29T13:38:19.988Z,64.97
2022-11-29T13:40:53.113Z,54.93
2022-11-29T13:43:23.897Z,70.80
2022-11-29T13:45:54.798Z,63.53
2022-11-29T13:48:27.773Z,65.90
2022-11-29T13:50:55.938Z,73.93
2022-11-29T13:53:24.509Z,67.40
2022-11-29T13:56:00.154Z,62.07
2022-11-29T13:58:33.769Z,67.30
2022-11-29T14:01:01.797Z,69.07
2022-11-29T14:03:30.748Z,87.97
2022-11-29T14:06:07.625Z,71.07
2022-11-29T14:09:10.339Z,74.37
2022-11-29T14:11:26.084Z,71.23
2022-11-29T14:13:55.083Z,67.77
2022-11-29T14:16:27.486Z,75.73
2022-11-29T14:19:04.851Z,67.23
2022-11-29T14:21:50.851Z,72.50
2022-11-29T14:24:38.967Z,79.40
2022-11-29T14:27:21.281Z,79.60
2022-11-29T14:29:54.566Z,66.07
2022-11-29T14:32:23.204Z,73.37
2022-11-29T14:34:55.155Z,65.63
2022-11-29T14:37:27.975Z,79.60
2022-11-29T14:39:56.006Z,67.50
2022-11-29T14:42:30.530Z,67.67
2022-11-29T14:45:01.342Z,66.17
2022-11-29T14:47:31.763Z,71.90
2022-11-29T14:50:00.801Z,75.77
2022-11-29T14:52:30.023Z,78.87
2022-11-29T14:54:59.414Z,63.70
2022-11-29T14:57:45.868Z,72.17
2022-11-29T15:00:15.791Z,69.93
2022-11-29T15:02:45.731Z,70.20
2022-11-29T15:05:15.526Z,63.97
2022-11-29T15:07:44.796Z,62.87
2022-11-29T15:10:18.709Z,61.10
2022-11-29T15:12:46.843Z,59.63
2022-11-29T15:15:25.046Z,67.53
2022-11-29T15:17:55.333Z,64.13
2022-11-29T15:20:32.126Z,76.20
2022-11-29T15:23:00.957Z,57.17
2022-11-29T15:25:31.028Z,61.97
2022-11-29T15:27:59.417Z,64.43
2022-11-29T15:30:32.954Z,59.10
2022-11-29T15:33:01.473Z,58.07
2022-11-29T15:35:29.042Z,64.50
2022-11-29T15:37:56.756Z,62.13
2022-11-29T15:40:26.286Z,69.83
2022-11-29T15:42:57.826Z,58.63
2022-11-29T15:45:26.494Z,69.53
2022-11-29T15:47:55.382Z,60.10
2022-11-29T15:50:26.897Z,60.93
2022-11-29T15:52:56.557Z,61.83
2022-11-29T15:55:24.242Z,55.47
2022-11-29T15:57:53.225Z,64.43
2022-11-29T16:00:23.927Z,65.30
2022-11-29T16:02:53.184Z,55.20
2022-11-29T16:05:23.660Z,65.77
2022-11-29T16:07:52.704Z,69.20
2022-11-29T16:10:21.451Z,56.23
2022-11-29T16:12:53.201Z,58.20
2022-11-29T16:15:30.431Z,54.27
2022-11-29T16:18:02.686Z,58.27
2022-11-29T16:20:32.276Z,62.77
2022-11-29T16:23:03.867Z,57.13
2022-11-29T16:25:37.372Z,55.23
2022-11-29T16:28:05.906Z,69.53
2022-11-29T16:30:33.452Z,58.70
2022-11-29T16:33:03.433Z,60.77
2022-11-29T16:35:33.757Z,56.23
2022-11-29T16:38:04.236Z,65.07
2022-11-29T16:40:32.318Z,56.53
2022-11-29T16:43:08.054Z,70.77
2022-11-29T16:45:36.589Z,61.70
2022-11-29T16:48:15.350Z,62.13
2022-11-29T16:50:46.019Z,64.73
2022-11-29T16:53:32.121Z,67.00
2022-11-29T16:55:59.557Z,73.80
2022-11-29T16:58:27.175Z,60.40
2022-11-29T17:00:55.339Z,59.60
2022-11-29T17:03:22.999Z,65.77
2022-11-29T17:05:52.036Z,53.70
2022-11-29T17:08:19.433Z,62.27
2022-11-29T17:10:46.946Z,69.70
2022-11-29T17:13:14.412Z,68.50
2022-11-29T17:15:41.851Z,56.90
2022-11-29T17:18:09.362Z,58.53
2022-11-29T17:20:36.921Z,54.13
2022-11-29T17:23:05.692Z,61.13
2022-11-29T17:25:33.097Z,57.00
2022-11-29T17:28:00.581Z,61.07
2022-11-29T17:30:29.962Z,64.20
2022-11-29T17:32:57.430Z,59.57
2022-11-29T17:35:24.920Z,61.17
2022-11-29T17:37:52.328Z,66.23
2022-11-29T17:40:21.187Z,66.37
2022-11-29T17:42:48.593Z,61.27
2022-11-29T17:45:16.277Z,57.40
2022-11-29T17:47:43.685Z,56.63
2022-11-29T17:50:11.723Z,57.60
2022-11-29T17:52:39.722Z,62.70
2022-11-29T17:55:07.777Z,59.60
2022-11-29T17:57:36.662Z,62.50
2022-11-29T18:00:06.259Z,58.03
2022-11-29T18:02:33.731Z,52.83
2022-11-29T18:05:01.333Z,56.77
2022-11-29T18:07:28.805Z,61.40
2022-11-29T18:09:56.253Z,59.87
2022-11-29T18:12:23.927Z,54.10
2022-11-29T18:14:52.684Z,55.87
2022-11-29T18:17:20.072Z,57.60
2022-11-29T18:19:47.750Z,53.47
2022-11-29T18:22:15.465Z,53.83
2022-11-29T18:24:44.113Z,57.13
2022-11-29T18:27:11.550Z,50.57
2022-11-29T18:29:39.453Z,54.27
2022-11-29T18:32:08.308Z,46.17
2022-11-29T18:34:35.689Z,48.83
2022-11-29T18:37:03.117Z,49.87
2022-11-29T18:39:30.505Z,54.47
2022-11-29T18:41:57.918Z,50.73
2022-11-29T18:44:29.500Z,55.00
2022-11-29T18:46:57.352Z,59.50
2022-11-29T18:49:26.256Z,53.37
2022-11-29T18:51:53.677Z,51.20
2022-11-29T18:54:21.108Z,55.93
2022-11-29T18:56:50.682Z,67.00
2022-11-29T18:59:18.502Z,65.13
2022-11-29T19:01:47.556Z,57.83
2022-11-29T19:04:15.890Z,60.73
2022-11-29T19:06:45.035Z,50.80
2022-11-29T19:09:13.293Z,53.40
2022-11-29T19:11:40.779Z,53.20
2022-11-29T19:14:11.084Z,55.30
2022-11-29T19:16:39.396Z,44.10
2022-11-29T19:19:06.761Z,45.40
2022-11-29T19:21:35.140Z,49.10
2022-11-29T19:24:05.400Z,44.03
2022-11-29T19:26:33.507Z,40.20
2022-11-29T19:29:01.511Z,46.23
2022-11-29T19:31:29.569Z,44.53
2022-11-29T19:33:57.887Z,48.27
2022-11-29T19:36:25.914Z,44.10
2022-11-29T19:38:54.528Z,45.07
2022-11-29T19:41:26.233Z,47.37
2022-11-29T19:43:53.927Z,45.43
2022-11-29T19:46:22.530Z,53.43
2022-11-29T19:48:50.535Z,44.17
2022-11-29T19:51:18.563Z,45.73
2022-11-29T19:53:46.398Z,46.90
2022-11-29T19:56:14.634Z,40.57
2022-11-29T19:58:43.837Z,49.53
2022-11-29T20:01:12.849Z,49.00
2022-11-29T20:03:40.569Z,68.17
2022-11-29T20:06:08.714Z,63.17
2022-11-29T20:08:36.768Z,57.30
2022-11-29T20:11:07.374Z,56.50
2022-11-29T20:13:34.795Z,57.47
2022-11-29T20:16:04.266Z,53.33
2022-11-29T20:18:32.275Z,52.90
2022-11-29T20:21:03.910Z,52.37
2022-11-29T20:23:31.459Z,55.60
2022-11-29T20:25:59.106Z,49.50
2022-11-29T20:28:26.740Z,51.77
2022-11-29T20:30:54.309Z,50.10
2022-11-29T20:33:25.250Z,47.00
2022-11-29T20:35:57.634Z,51.07
2022-11-29T20:38:29.368Z,47.50
2022-11-29T20:41:03.019Z,49.43
2022-11-29T20:43:35.682Z,45.20
2022-11-29T20:46:03.274Z,48.73
2022-11-29T20:48:32.313Z,48.40
2022-11-29T20:51:00.877Z,49.43
2022-11-29T20:53:32.525Z,51.57
2022-11-29T20:56:00.011Z,49.67
2022-11-29T20:58:27.658Z,46.13
2022-11-29T21:00:55.867Z,42.10
2022-11-29T21:03:24.139Z,52.37
2022-11-29T21:05:53.227Z,44.23
2022-11-29T21:08:22.103Z,50.10
2022-11-29T21:10:49.901Z,54.13
2022-11-29T21:13:17.952Z,47.33
2022-11-29T21:15:45.702Z,47.97
2022-11-29T21:18:22.288Z,53.27
2022-11-29T21:20:54.632Z,49.70
2022-11-29T21:23:26.453Z,49.30
2022-11-29T21:25:57.421Z,55.47
2022-11-29T21:28:29.459Z,59.60
2022-11-29T21:30:57.102Z,48.60
2022-11-29T21:33:24.787Z,43.17
2022-11-29T21:35:53.915Z,53.47
2022-11-29T21:38:23.988Z,51.50
2022-11-29T21:40:51.481Z,52.43
2022-11-29T21:43:20.705Z,48.77
2022-11-29T21:45:50.144Z,50.43
2022-11-29T21:48:34.909Z,43.83
2022-11-29T21:51:02.465Z,44.57
2022-11-29T21:53:31.230Z,47.70
2022-11-29T21:55:59.011Z,48.93
2022-11-29T21:58:26.863Z,48.80
2022-11-29T22:00:54.297Z,49.93
2022-11-29T22:03:21.755Z,45.10
2022-11-29T22:05:49.198Z,47.17
2022-11-29T22:08:16.582Z,53.07
2022-11-29T22:10:45.334Z,58.33
2022-11-29T22:13:12.728Z,64.90
2022-11-29T22:15:40.181Z,50.73
2022-11-29T22:18:07.785Z,52.73
2022-11-29T22:20:35.189Z,47.00
2022-11-29T22:23:02.611Z,51.00
2022-11-29T22:25:30.052Z,52.70
2022-11-29T22:27:58.745Z,43.57
2022-11-29T22:30:26.158Z,50.10
2022-11-29T22:32:53.605Z,57.27
2022-11-29T22:35:21.014Z,58.17
2022-11-29T22:37:48.438Z,49.87
2022-11-29T22:40:17.054Z,46.03
2022-11-29T22:42:44.478Z,57.97
2022-11-29T22:45:13.510Z,47.00
2022-11-29T22:47:40.936Z,52.73
2022-11-29T22:50:08.868Z,53.43
2022-11-29T22:52:36.300Z,60.30
2022-11-29T22:55:05.165Z,57.93
2022-11-29T22:57:32.807Z,50.80
2022-11-29T23:00:00.229Z,51.73
2022-11-29T23:02:29.083Z,56.47
2022-11-29T23:04:56.626Z,57.40
2022-11-29T23:07:24.109Z,50.07
2022-11-29T23:09:51.550Z,51.90
2022-11-29T23:12:19.122Z,52.87
2022-11-29T23:14:49.230Z,53.77
2022-11-29T23:17:20.449Z,56.97
2022-11-29T23:19:49.192Z,52.67
2022-11-29T23:22:16.588Z,55.23
2022-11-29T23:24:44.277Z,58.57
2022-11-29T23:27:11.906Z,53.67
2022-11-29T23:29:39.318Z,54.00
2022-11-29T23:32:06.783Z,53.00
2022-11-29T23:34:34.473Z,44.57
2022-11-29T23:37:03.256Z,53.47
2022-11-29T23:39:30.643Z,49.83
2022-11-29T23:41:58.153Z,49.90
2022-11-29T23:44:25.632Z,54.67
2022-11-29T23:46:53.080Z,44.63
2022-11-29T23:49:20.564Z,48.43
2022-11-29T23:51:47.980Z,49.90
2022-11-29T23:54:16.758Z,49.00
2022-11-29T23:56:44.226Z,53.70
2022-11-29T23:59:11.698Z,60.47
